< < Back
Terminal Aerodrome Forecast


Current Version              Previous Versions:   1  2  3  4  5  6  7  8  9  

Terminal Aerodrome Forecast

424
FTUS42 KGSP 031126
TAFAVL
TAF
KAVL 031126Z 0312/0412 VRB05KT P6SM -SHRA SCT007 BKN014
      TEMPO 0312/0313 BKN007 OVC014
     FM031400 33012KT P6SM VCSH BKN045
      TEMPO 0318/0320 4SM -TSRA OVC025CB
     FM040000 34015KT P6SM OVC050
     FM040600 35010KT P6SM OVC010=

Latest METAR

228
SAUS70 KWBC 032000 RRA
MTRAVL
METAR KAVL 031954Z 34014G21KT 10SM FEW075 FEW095 22/12 A2981 RMK AO2
SLP072 T02220122


USA.gov is the U.S. government's official web portal to all federal, state and local government web resources and services.